Elsa — WDB7862 — position and weather

sailwx.info

Track history (hours):
 
Tides and Currents Weather Stations Pressure Air Temp Water Temp Dewpoint Dewpoint Depression Visibility Wind Speed Wind Dir Waves Ship Positions

Elsa

Owner: GP RESOURCES INC., TERMINAL ISLAND, CA. More information available from US FCC via Universal Licensing System and Coast Guard Vessel Documentation Center.

Last reported at 2014-Oct-21 23:33 UTC. Time now 2014-Oct-22 00:05 UTC.
Position N 33°44' W 118°14'.

Length 18 m.

Type: Tug. MMSI: 366949020.

Date/timePositionNaut miles runAvg speedWind from/ knotsBaromVisibWave heightAir tempDewpointWater temp
2014-Oct-21 23:33N 33°44' W 118°14'0 0.0
2014-Oct-21 22:33N 33°44' W 118°14'0 0.0
2014-Oct-21 00:33N 33°44' W 118°13'0 0.4
2014-Oct-20 23:33N 33°44' W 118°13'0 0.0
2014-Oct-20 22:33N 33°44' W 118°13'1 0.6
2014-Oct-20 21:30N 33°44' W 118°13'2 2.0
2014-Oct-20 20:33N 33°44' W 118°10'0 0.0
2014-Oct-20 19:33N 33°44' W 118°10'1 0.8
2014-Oct-20 18:33N 33°44' W 118°09'0 0.0
2014-Oct-20 17:33N 33°44' W 118°09'0 0.0
2014-Oct-20 16:33N 33°44' W 118°09'0 0.0
2014-Oct-20 15:33N 33°44' W 118°09'3 3.2
2014-Oct-20 14:33N 33°43' W 118°13'  
2014-Oct-16 16:05N 33°44' W 118°16'0 0.0
2014-Oct-16 15:30N 33°44' W 118°16'2 0.1
2014-Oct-14 19:16N 33°43' W 118°13'0 0.5
2014-Oct-14 18:33N 33°44' W 118°13'0 0.0
2014-Oct-14 17:33N 33°44' W 118°13'0 0.0
2014-Oct-14 16:33N 33°44' W 118°13'1 1.3
2014-Oct-14 15:33N 33°45' W 118°13'0 0.0
2014-Oct-14 14:33N 33°45' W 118°13'3 1.9
2014-Oct-14 13:15N 33°43' W 118°15'2 0.1
2014-Oct-13 19:08N 33°45' W 118°17'2 3.0
2014-Oct-13 18:33N 33°46' W 118°15'0 0.0
2014-Oct-13 17:33N 33°46' W 118°15'0 0.0
2014-Oct-13 16:33N 33°46' W 118°15'0 0.0
2014-Oct-13 15:33N 33°46' W 118°15'2 1.9
2014-Oct-13 14:30N 33°44' W 118°16'0 0.0
2014-Oct-13 04:33N 33°44' W 118°16'3 3.1
2014-Oct-13 03:33N 33°44' W 118°12'0 0.1
2014-Oct-13 02:33N 33°44' W 118°12'0 0.1
2014-Oct-13 01:33N 33°44' W 118°12'1 0.7
2014-Oct-13 00:33N 33°43' W 118°13'3 2.2
2014-Oct-12 23:14N 33°44' W 118°16'0 0.0
2014-Oct-12 14:15N 33°44' W 118°16'  
Track history (hours):
 
Tides and Currents Weather Stations Pressure Air Temp Water Temp Dewpoint Dewpoint Depression Visibility Wind Speed Wind Dir Waves Ship Positions

Elsa

Owner: GP RESOURCES INC., TERMINAL ISLAND, CA. More information available from US FCC via Universal Licensing System and Coast Guard Vessel Documentation Center.

Last reported at 2014-Oct-21 23:33 UTC. Time now 2014-Oct-22 00:05 UTC.
Position N 33°44' W 118°14'.

Length 18 m.

Type: Tug. MMSI: 366949020.

Date/timePositionNaut miles runAvg speedWind from/ knotsBaromVisibWave heightAir tempDewpointWater temp
2014-Oct-21 23:33N 33°44' W 118°14'0 0.0
2014-Oct-21 22:33N 33°44' W 118°14'0 0.0
2014-Oct-21 00:33N 33°44' W 118°13'0 0.4
2014-Oct-20 23:33N 33°44' W 118°13'0 0.0
2014-Oct-20 22:33N 33°44' W 118°13'1 0.6
2014-Oct-20 21:30N 33°44' W 118°13'2 2.0
2014-Oct-20 20:33N 33°44' W 118°10'0 0.0
2014-Oct-20 19:33N 33°44' W 118°10'1 0.8
2014-Oct-20 18:33N 33°44' W 118°09'0 0.0
2014-Oct-20 17:33N 33°44' W 118°09'0 0.0
2014-Oct-20 16:33N 33°44' W 118°09'0 0.0
2014-Oct-20 15:33N 33°44' W 118°09'3 3.2
2014-Oct-20 14:33N 33°43' W 118°13'  
2014-Oct-16 16:05N 33°44' W 118°16'0 0.0
2014-Oct-16 15:30N 33°44' W 118°16'2 0.1
2014-Oct-14 19:16N 33°43' W 118°13'0 0.5
2014-Oct-14 18:33N 33°44' W 118°13'0 0.0
2014-Oct-14 17:33N 33°44' W 118°13'0 0.0
2014-Oct-14 16:33N 33°44' W 118°13'1 1.3
2014-Oct-14 15:33N 33°45' W 118°13'0 0.0
2014-Oct-14 14:33N 33°45' W 118°13'3 1.9
2014-Oct-14 13:15N 33°43' W 118°15'2 0.1
2014-Oct-13 19:08N 33°45' W 118°17'2 3.0
2014-Oct-13 18:33N 33°46' W 118°15'0 0.0
2014-Oct-13 17:33N 33°46' W 118°15'0 0.0
2014-Oct-13 16:33N 33°46' W 118°15'0 0.0
2014-Oct-13 15:33N 33°46' W 118°15'2 1.9
2014-Oct-13 14:30N 33°44' W 118°16'0 0.0
2014-Oct-13 04:33N 33°44' W 118°16'3 3.1
2014-Oct-13 03:33N 33°44' W 118°12'0 0.1
2014-Oct-13 02:33N 33°44' W 118°12'0 0.1
2014-Oct-13 01:33N 33°44' W 118°12'1 0.7
2014-Oct-13 00:33N 33°43' W 118°13'3 2.2
2014-Oct-12 23:14N 33°44' W 118°16'0 0.0
2014-Oct-12 14:15N 33°44' W 118°16'  

Dump ship's entire track history